createdAt,value
2019-04-28T00:01:03.304Z,100835.75
2019-04-28T00:01:43.381Z,100835.23
2019-04-28T00:02:22.484Z,100833.64
2019-04-28T00:03:00.758Z,100830.95
2019-04-28T00:03:37.116Z,100836.87
2019-04-28T00:04:13.511Z,100836.36
2019-04-28T00:04:51.446Z,100841.22
2019-04-28T00:05:28.836Z,100840.39
2019-04-28T00:06:06.314Z,100844.17
2019-04-28T00:06:44.632Z,100838.52
2019-04-28T00:07:21.741Z,100845.26
2019-04-28T00:08:01.371Z,100845.00
2019-04-28T00:08:38.952Z,100844.47
2019-04-28T00:09:16.445Z,100846.08
2019-04-28T00:09:53.458Z,100846.08
2019-04-28T00:10:32.150Z,100839.63
2019-04-28T00:11:13.418Z,100846.09
2019-04-28T00:11:51.609Z,100843.67
2019-04-28T00:12:30.879Z,100848.78
2019-04-28T00:13:07.689Z,100853.09
2019-04-28T00:13:44.342Z,100854.43
2019-04-28T00:14:21.879Z,100857.93
2019-04-28T00:14:58.544Z,100860.08
2019-04-28T00:15:35.740Z,100857.39
2019-04-28T00:16:12.797Z,100866.55
2019-04-28T00:16:51.080Z,100866.03
2019-04-28T00:17:27.684Z,100863.86
2019-04-28T00:18:04.261Z,100856.34
2019-04-28T00:18:41.565Z,100869.28
2019-04-28T00:19:20.762Z,100864.98
2019-04-28T00:20:01.240Z,100866.59
2019-04-28T00:20:50.976Z,100867.94
2019-04-28T00:21:51.569Z,100869.28
2019-04-28T00:22:35.241Z,100872.53
2019-04-28T00:23:22.961Z,100871.98
2019-04-28T00:24:18.590Z,100873.61
2019-04-28T00:25:28.818Z,100876.05
2019-04-28T00:26:21.157Z,100880.10
2019-04-28T00:26:59.143Z,100877.13
2019-04-28T00:27:35.951Z,100884.95
2019-04-28T00:28:14.415Z,100887.64
2019-04-28T00:28:51.355Z,100887.11
2019-04-28T00:29:38.482Z,100886.31
2019-04-28T00:30:07.566Z,100885.80
2019-04-28T00:30:43.830Z,100891.70
2019-04-28T00:31:21.322Z,100888.20
2019-04-28T00:31:57.758Z,100896.02
2019-04-28T00:32:34.092Z,100898.44
2019-04-28T00:33:11.707Z,100892.25
2019-04-28T00:33:48.275Z,100897.64
2019-04-28T00:34:25.211Z,100901.13
2019-04-28T00:35:02.306Z,100896.55
2019-04-28T00:35:39.520Z,100896.83
2019-04-28T00:36:15.886Z,100904.38
2019-04-28T00:37:11.138Z,100900.33
2019-04-28T00:37:47.824Z,100905.45
2019-04-28T00:38:24.558Z,100908.16
2019-04-28T00:39:01.564Z,100912.74
2019-04-28T00:39:37.957Z,100913.81
2019-04-28T00:40:14.442Z,100916.78
2019-04-28T00:40:51.167Z,100916.23
2019-04-28T00:41:30.760Z,100917.31
2019-04-28T00:42:06.881Z,100915.17
2019-04-28T00:42:43.482Z,100914.91
2019-04-28T00:43:21.721Z,100920.83
2019-04-28T00:44:01.944Z,100919.48
2019-04-28T00:44:43.064Z,100914.09
2019-04-28T00:45:17.800Z,100916.78
2019-04-28T00:45:56.259Z,100921.35
2019-04-28T00:46:35.045Z,100922.70
2019-04-28T00:47:11.255Z,100924.05
2019-04-28T00:47:47.674Z,100923.78
2019-04-28T00:48:24.482Z,100922.97
2019-04-28T00:49:02.104Z,100922.69
2019-04-28T00:49:47.465Z,100926.45
2019-04-28T00:50:23.733Z,100926.98
2019-04-28T00:51:01.795Z,100927.54
2019-04-28T00:51:41.475Z,100930.50
2019-04-28T00:52:19.044Z,100930.77
2019-04-28T00:52:55.379Z,100933.45
2019-04-28T00:53:31.774Z,100929.97
2019-04-28T00:54:08.030Z,100932.91
2019-04-28T00:54:44.934Z,100932.37
2019-04-28T00:55:21.273Z,100928.86
2019-04-28T00:55:58.116Z,100931.54
2019-04-28T00:56:34.445Z,100935.58
2019-04-28T00:57:11.298Z,100928.57
2019-04-28T00:57:50.925Z,100930.98
2019-04-28T00:58:28.639Z,100930.45
2019-04-28T00:59:07.515Z,100931.52
2019-04-28T00:59:53.956Z,100934.47
2019-04-28T01:00:24.551Z,100931.50
2019-04-28T01:01:04.656Z,100931.50
2019-04-28T01:01:47.600Z,100930.16
2019-04-28T01:02:51.826Z,100930.95
2019-04-28T01:03:28.511Z,100930.95
2019-04-28T01:04:06.260Z,100930.95
2019-04-28T01:04:43.367Z,100934.72
2019-04-28T01:05:21.700Z,100932.30
2019-04-28T01:05:57.934Z,100936.33
2019-04-28T01:06:34.232Z,100943.07
2019-04-28T01:07:11.502Z,100937.95
2019-04-28T01:07:48.550Z,100938.75
2019-04-28T01:08:24.701Z,100941.72
2019-04-28T01:09:03.800Z,100941.18
2019-04-28T01:09:41.459Z,100941.20
2019-04-28T01:10:17.561Z,100936.61
2019-04-28T01:10:53.931Z,100941.46
2019-04-28T01:11:31.659Z,100944.42
2019-04-28T01:12:08.121Z,100938.47
2019-04-28T01:12:46.637Z,100935.78
2019-04-28T01:13:23.824Z,100940.88
2019-04-28T01:14:01.723Z,100938.70
2019-04-28T01:14:38.620Z,100945.42
2019-04-28T01:15:24.019Z,100942.72
2019-04-28T01:16:15.557Z,100944.06
2019-04-28T01:17:01.756Z,100947.58
2019-04-28T01:17:53.997Z,100948.38
2019-04-28T01:18:42.461Z,100947.31
2019-04-28T01:19:30.062Z,100943.80
2019-04-28T01:20:09.788Z,100950.80
2019-04-28T01:20:46.007Z,100951.34
2019-04-28T01:21:24.810Z,100953.80
2019-04-28T01:22:15.841Z,100958.09
2019-04-28T01:22:52.547Z,100952.97
2019-04-28T01:23:30.268Z,100954.02
2019-04-28T01:24:07.098Z,100951.87
2019-04-28T01:24:44.737Z,100958.87
2019-04-28T01:25:21.638Z,100955.90
2019-04-28T01:25:57.901Z,100958.85
2019-04-28T01:26:35.041Z,100956.95
2019-04-28T01:27:26.221Z,100954.52
2019-04-28T01:28:02.423Z,100958.82
2019-04-28T01:28:39.877Z,100961.78
2019-04-28T01:29:16.139Z,100959.61
2019-04-28T01:30:05.177Z,100961.22
2019-04-28T01:30:51.995Z,100963.09
2019-04-28T01:31:39.999Z,100975.22
2019-04-28T01:32:47.488Z,100966.05
2019-04-28T01:33:46.370Z,100963.91
2019-04-28T01:34:24.211Z,100968.75
2019-04-28T01:35:01.311Z,100967.69
2019-04-28T01:35:39.192Z,100966.61
2019-04-28T01:36:15.847Z,100971.44
2019-04-28T01:36:52.193Z,100967.12
2019-04-28T01:37:29.687Z,100974.94
2019-04-28T01:38:06.960Z,100970.61
2019-04-28T01:38:43.948Z,100968.72
2019-04-28T01:39:21.146Z,100969.53
2019-04-28T01:39:59.670Z,100969.27
2019-04-28T01:40:35.877Z,100973.30
2019-04-28T01:41:12.453Z,100975.45
2019-04-28T01:41:49.584Z,100973.53
2019-04-28T01:42:26.791Z,100975.42
2019-04-28T01:43:05.572Z,100976.21
2019-04-28T01:43:42.142Z,100981.05
2019-04-28T01:44:19.834Z,100979.70
2019-04-28T01:44:56.205Z,100983.46
2019-04-28T01:45:32.574Z,100983.72
2019-04-28T01:46:10.176Z,100985.08
2019-04-28T01:46:46.497Z,100985.61
2019-04-28T01:47:23.397Z,100989.11
2019-04-28T01:48:00.533Z,100981.55
2019-04-28T01:48:37.598Z,100987.46
2019-04-28T01:49:14.283Z,100987.17
2019-04-28T01:49:50.591Z,100983.66
2019-04-28T01:50:27.513Z,100989.06
2019-04-28T01:51:04.458Z,100991.73
2019-04-28T01:51:41.580Z,100990.37
2019-04-28T01:52:20.253Z,100988.19
2019-04-28T01:52:56.457Z,100992.50
2019-04-28T01:53:33.493Z,100992.23
2019-04-28T01:54:12.625Z,100992.23
2019-04-28T01:54:50.187Z,100990.62
2019-04-28T01:55:26.588Z,100989.53
2019-04-28T01:56:03.531Z,100987.61
2019-04-28T01:56:40.433Z,100989.48
2019-04-28T01:57:21.322Z,100991.33
2019-04-28T01:58:01.065Z,100992.11
2019-04-28T01:58:37.979Z,100992.09
2019-04-28T01:59:14.725Z,100995.83
2019-04-28T01:59:51.049Z,100988.83
2019-04-28T02:00:29.576Z,100993.11
2019-04-28T02:01:05.831Z,100992.83
2019-04-28T02:01:42.334Z,100995.50
2019-04-28T02:02:19.900Z,100995.19
2019-04-28T02:02:56.188Z,100990.31
2019-04-28T02:03:32.683Z,100991.64
2019-04-28T02:04:10.148Z,100991.06
2019-04-28T02:04:46.286Z,100989.72
2019-04-28T02:05:22.931Z,100983.78
2019-04-28T02:06:00.168Z,100991.31
2019-04-28T02:06:36.538Z,100988.03
2019-04-28T02:07:13.544Z,100991.20
2019-04-28T02:07:50.579Z,100989.81
2019-04-28T02:08:26.962Z,100994.64
2019-04-28T02:09:03.256Z,100994.64
2019-04-28T02:09:40.366Z,100990.59
2019-04-28T02:10:16.743Z,100993.27
2019-04-28T02:10:53.324Z,100990.28
2019-04-28T02:11:31.716Z,100990.28
2019-04-28T02:12:10.534Z,100991.34
2019-04-28T02:12:50.328Z,100984.02
2019-04-28T02:13:26.840Z,100990.22
2019-04-28T02:14:03.053Z,100994.50
2019-04-28T02:14:40.375Z,100992.60
2019-04-28T02:15:20.293Z,100985.59
2019-04-28T02:15:56.863Z,100985.81
2019-04-28T02:16:33.052Z,100981.28
2019-04-28T02:17:10.496Z,100990.67
2019-04-28T02:17:46.883Z,100992.57
2019-04-28T02:18:23.195Z,100989.00
2019-04-28T02:19:02.249Z,100989.00
2019-04-28T02:19:41.157Z,100997.95
2019-04-28T02:20:20.265Z,100991.70
2019-04-28T02:21:04.010Z,100993.05
2019-04-28T02:22:03.896Z,100992.51
2019-04-28T02:22:54.074Z,100993.86
2019-04-28T02:23:31.545Z,100991.41
2019-04-28T02:24:25.622Z,100995.21
2019-04-28T02:25:02.011Z,100984.50
2019-04-28T02:25:42.317Z,100984.50
2019-04-28T02:26:20.893Z,100984.23
2019-04-28T02:27:00.830Z,100984.27
2019-04-28T02:27:37.388Z,100993.41
2019-04-28T02:28:14.050Z,100985.08
2019-04-28T02:28:50.824Z,100985.08
2019-04-28T02:29:30.050Z,100994.79
2019-04-28T02:30:11.362Z,100980.05
2019-04-28T02:30:50.324Z,100976.28
2019-04-28T02:31:25.647Z,100983.59
2019-04-28T02:32:02.673Z,100983.59
2019-04-28T02:32:40.687Z,100980.88
2019-04-28T02:33:17.295Z,100971.20
2019-04-28T02:33:53.938Z,100975.25
2019-04-28T02:34:31.325Z,100979.30
2019-04-28T02:35:10.705Z,100979.30
2019-04-28T02:35:51.171Z,100975.25
2019-04-28T02:36:31.094Z,100972.23
2019-04-28T02:37:06.128Z,100976.03
2019-04-28T02:37:44.688Z,100965.22
2019-04-28T02:38:21.238Z,100968.73
2019-04-28T02:39:00.759Z,100970.02
2019-04-28T02:39:37.244Z,100971.86
2019-04-28T02:40:14.156Z,100976.33
2019-04-28T02:40:51.233Z,100969.22
2019-04-28T02:41:30.638Z,100969.22
2019-04-28T02:42:10.944Z,100971.02
2019-04-28T02:42:52.121Z,100965.03
2019-04-28T02:43:30.767Z,100957.21
2019-04-28T02:44:07.031Z,100957.21
2019-04-28T02:44:43.378Z,100953.92
2019-04-28T02:45:22.464Z,100964.62
2019-04-28T02:46:00.709Z,100964.30
2019-04-28T02:46:40.736Z,100966.93
2019-04-28T02:47:17.326Z,100962.17
2019-04-28T02:47:57.674Z,100962.34
2019-04-28T02:48:35.608Z,100951.49
2019-04-28T02:49:15.644Z,100951.49
2019-04-28T02:50:01.058Z,100956.68
2019-04-28T02:51:01.653Z,100956.68
2019-04-28T02:51:43.933Z,100957.05
2019-04-28T02:52:37.666Z,100956.37
2019-04-28T02:53:23.740Z,100951.72
2019-04-28T02:54:00.678Z,100951.72
2019-04-28T02:54:40.402Z,100954.19
2019-04-28T02:55:17.774Z,100944.88
2019-04-28T02:55:56.234Z,100958.84
2019-04-28T02:56:32.463Z,100948.95
2019-04-28T02:57:10.762Z,100948.95
2019-04-28T02:57:46.998Z,100948.81
2019-04-28T02:58:24.509Z,100951.97
2019-04-28T02:59:01.243Z,100945.09
2019-04-28T02:59:40.920Z,100948.50
2019-04-28T03:00:15.785Z,100945.33
2019-04-28T03:01:02.860Z,100953.63
2019-04-28T03:01:31.486Z,100948.28
2019-04-28T03:02:10.371Z,100942.31
2019-04-28T03:02:47.139Z,100942.97
2019-04-28T03:03:30.806Z,100939.72
2019-04-28T03:04:07.442Z,100946.05
2019-04-28T03:04:43.970Z,100944.20
2019-04-28T03:05:23.020Z,100942.62
2019-04-28T03:06:01.365Z,100941.13
2019-04-28T03:06:41.140Z,100941.81
2019-04-28T03:07:17.522Z,100933.48
2019-04-28T03:07:55.257Z,100938.05
2019-04-28T03:08:34.465Z,100933.62
2019-04-28T03:09:10.870Z,100936.38
2019-04-28T03:09:51.969Z,100939.09
2019-04-28T03:10:30.714Z,100931.57
2019-04-28T03:11:06.331Z,100929.66
2019-04-28T03:11:43.106Z,100936.69
2019-04-28T03:12:21.529Z,100928.61
2019-04-28T03:13:10.822Z,100931.08
2019-04-28T03:13:51.257Z,100928.43
2019-04-28T03:14:30.244Z,100924.98
2019-04-28T03:15:07.292Z,100923.62
2019-04-28T03:15:51.538Z,100923.38
2019-04-28T03:16:30.393Z,100924.48
2019-04-28T03:17:10.715Z,100925.29
2019-04-28T03:17:52.445Z,100917.95
2019-04-28T03:18:27.887Z,100919.80
2019-04-28T03:19:07.469Z,100918.44
2019-04-28T03:19:43.925Z,100919.55
2019-04-28T03:20:21.543Z,100913.81
2019-04-28T03:20:57.988Z,100914.74
2019-04-28T03:21:34.386Z,100914.74
2019-04-28T03:22:11.702Z,100913.88
2019-04-28T03:22:50.806Z,100907.22
2019-04-28T03:23:26.119Z,100911.23
2019-04-28T03:24:04.761Z,100905.00
2019-04-28T03:24:42.497Z,100905.00
2019-04-28T03:25:52.737Z,100907.71
2019-04-28T03:26:43.994Z,100898.46
2019-04-28T03:27:51.243Z,100896.61
2019-04-28T03:28:41.363Z,100899.39
2019-04-28T03:29:35.908Z,100893.57
2019-04-28T03:30:34.861Z,100896.34
2019-04-28T03:32:16.405Z,100887.66
2019-04-28T03:32:52.468Z,100891.17
2019-04-28T03:33:25.607Z,100888.83
2019-04-28T03:34:03.391Z,100883.28
2019-04-28T03:34:54.181Z,100882.42
2019-04-28T03:35:32.618Z,100882.48
2019-04-28T03:36:14.785Z,100882.79
2019-04-28T03:36:47.028Z,100877.36
2019-04-28T03:37:32.451Z,100878.23
2019-04-28T03:38:10.750Z,100875.77
2019-04-28T03:38:47.323Z,100876.35
2019-04-28T03:39:30.342Z,100871.73
2019-04-28T03:40:11.745Z,100873.88
2019-04-28T03:40:51.037Z,100869.81
2019-04-28T03:41:31.198Z,100869.08
2019-04-28T03:42:21.552Z,100867.47
2019-04-28T03:43:02.868Z,100867.72
2019-04-28T03:43:43.566Z,100867.72
2019-04-28T03:44:20.903Z,100867.23
2019-04-28T03:45:01.028Z,100867.47
2019-04-28T03:45:47.317Z,100867.16
2019-04-28T03:46:30.487Z,100872.84
2019-04-28T03:47:10.483Z,100863.31
2019-04-28T03:47:46.333Z,100867.63
2019-04-28T03:48:30.839Z,100864.05
2019-04-28T03:49:12.980Z,100867.00
2019-04-28T03:49:50.534Z,100867.19
2019-04-28T03:50:27.198Z,100862.07
2019-04-28T03:51:03.549Z,100858.25
2019-04-28T03:51:40.796Z,100862.07
2019-04-28T03:52:17.151Z,100860.90
2019-04-28T03:52:54.044Z,100864.66
2019-04-28T03:53:31.281Z,100860.83
2019-04-28T03:54:10.265Z,100861.56
2019-04-28T03:54:47.542Z,100859.90
2019-04-28T03:55:25.640Z,100857.13
2019-04-28T03:56:04.884Z,100859.25
2019-04-28T03:56:44.564Z,100856.47
2019-04-28T03:57:21.914Z,100855.28
2019-04-28T03:58:00.971Z,100855.53
2019-04-28T03:58:37.143Z,100847.88
2019-04-28T03:59:13.763Z,100854.59
2019-04-28T03:59:51.124Z,100847.98
2019-04-28T04:00:30.923Z,100849.23
2019-04-28T04:01:06.045Z,100850.24
2019-04-28T04:01:59.261Z,100846.41
2019-04-28T04:02:31.383Z,100844.19
2019-04-28T04:03:10.665Z,100836.28
2019-04-28T04:03:45.915Z,100836.22
2019-04-28T04:04:22.280Z,100836.14
2019-04-28T04:05:03.404Z,100838.72
2019-04-28T04:05:36.913Z,100834.50
2019-04-28T04:06:14.473Z,100838.70
2019-04-28T04:06:50.997Z,100834.25
2019-04-28T04:07:31.201Z,100835.70
2019-04-28T04:08:07.553Z,100834.19
2019-04-28T04:08:45.211Z,100830.52
2019-04-28T04:09:24.249Z,100825.89
2019-04-28T04:10:14.426Z,100822.66
2019-04-28T04:11:10.906Z,100827.14
2019-04-28T04:12:07.063Z,100821.19
2019-04-28T04:12:53.565Z,100821.05
2019-04-28T04:13:51.203Z,100814.35
2019-04-28T04:14:34.129Z,100817.38
2019-04-28T04:15:23.566Z,100812.34
2019-04-28T04:16:10.356Z,100811.46
2019-04-28T04:17:00.954Z,100813.69
2019-04-28T04:17:41.508Z,100809.37
2019-04-28T04:18:23.102Z,100812.00
2019-04-28T04:19:00.718Z,100803.84
2019-04-28T04:19:40.504Z,100803.22
2019-04-28T04:20:23.767Z,100803.94
2019-04-28T04:21:01.012Z,100802.57
2019-04-28T04:21:42.736Z,100802.19
2019-04-28T04:22:21.333Z,100801.06
2019-04-28T04:23:01.431Z,100807.28
2019-04-28T04:23:41.159Z,100797.57
2019-04-28T04:24:20.864Z,100791.28
2019-04-28T04:25:01.252Z,100785.73
2019-04-28T04:25:41.976Z,100789.47
2019-04-28T04:26:21.399Z,100790.45
2019-04-28T04:27:00.806Z,100792.96
2019-04-28T04:27:37.376Z,100791.08
2019-04-28T04:28:20.268Z,100785.46
2019-04-28T04:28:55.807Z,100786.39
2019-04-28T04:29:34.922Z,100787.58
2019-04-28T04:30:11.296Z,100783.26
2019-04-28T04:31:03.569Z,100785.72
2019-04-28T04:31:42.627Z,100780.60
2019-04-28T04:32:24.232Z,100782.30
2019-04-28T04:32:57.221Z,100778.11
2019-04-28T04:33:34.600Z,100777.14
2019-04-28T04:34:10.888Z,100774.91
2019-04-28T04:34:47.194Z,100778.34
2019-04-28T04:35:23.609Z,100774.98
2019-04-28T04:36:07.430Z,100772.95
2019-04-28T04:36:45.243Z,100776.14
2019-04-28T04:37:43.010Z,100771.36
2019-04-28T04:38:21.894Z,100771.07
2019-04-28T04:39:01.399Z,100770.84
2019-04-28T04:39:40.721Z,100770.73
2019-04-28T04:40:17.279Z,100766.92
2019-04-28T04:40:56.517Z,100768.45
2019-04-28T04:41:32.775Z,100765.00
2019-04-28T04:42:10.501Z,100764.12
2019-04-28T04:42:46.995Z,100766.92
2019-04-28T04:43:24.621Z,100767.09
2019-04-28T04:44:07.330Z,100759.47
2019-04-28T04:44:43.569Z,100759.70
2019-04-28T04:45:20.309Z,100756.48
2019-04-28T04:46:14.138Z,100755.45
2019-04-28T04:46:51.141Z,100750.84
2019-04-28T04:47:27.375Z,100750.59
2019-04-28T04:48:03.768Z,100752.40
2019-04-28T04:48:43.300Z,100750.34
2019-04-28T04:49:21.556Z,100745.35
2019-04-28T04:50:00.202Z,100745.22
2019-04-28T04:50:36.079Z,100740.11
2019-04-28T04:51:13.710Z,100741.87
2019-04-28T04:51:50.933Z,100733.92
2019-04-28T04:52:27.383Z,100737.98
2019-04-28T04:53:10.969Z,100737.52
2019-04-28T04:53:51.225Z,100730.02
2019-04-28T04:54:33.662Z,100734.20
2019-04-28T04:55:11.104Z,100728.86
2019-04-28T04:55:47.525Z,100728.63
2019-04-28T04:56:23.740Z,100729.27
2019-04-28T04:57:00.182Z,100729.27
2019-04-28T04:57:36.478Z,100725.17
2019-04-28T04:58:12.798Z,100725.02
2019-04-28T04:58:50.427Z,100722.22
2019-04-28T04:59:30.049Z,100719.49
2019-04-28T05:00:09.910Z,100713.87
2019-04-28T05:01:10.650Z,100713.87
2019-04-28T05:02:26.748Z,100717.49
2019-04-28T05:03:21.101Z,100715.81
2019-04-28T05:04:12.901Z,100708.50
2019-04-28T05:05:25.993Z,100705.11
2019-04-28T05:06:04.012Z,100707.52
2019-04-28T05:06:41.590Z,100698.59
2019-04-28T05:07:19.569Z,100699.62
2019-04-28T05:07:56.109Z,100698.75
2019-04-28T05:08:32.855Z,100696.72
2019-04-28T05:09:10.676Z,100694.45
2019-04-28T05:09:46.970Z,100696.56
2019-04-28T05:10:23.866Z,100697.13
2019-04-28T05:11:00.955Z,100692.11
2019-04-28T05:11:37.384Z,100689.49
2019-04-28T05:12:13.784Z,100685.41
2019-04-28T05:12:51.830Z,100688.03
2019-04-28T05:13:29.919Z,100689.39
2019-04-28T05:14:07.587Z,100681.67
2019-04-28T05:14:43.996Z,100686.15
2019-04-28T05:15:22.930Z,100685.14
2019-04-28T05:15:59.855Z,100686.52
2019-04-28T05:16:36.345Z,100678.47
2019-04-28T05:17:12.628Z,100678.81
2019-04-28T05:17:50.103Z,100673.36
2019-04-28T05:18:26.384Z,100674.77
2019-04-28T05:19:02.672Z,100672.77
2019-04-28T05:19:40.196Z,100670.27
2019-04-28T05:20:16.615Z,100673.30
2019-04-28T05:20:52.889Z,100666.36
2019-04-28T05:21:32.868Z,100669.73
2019-04-28T05:22:07.316Z,100672.72
2019-04-28T05:22:52.649Z,100664.49
2019-04-28T05:23:53.510Z,100665.62
2019-04-28T05:24:54.494Z,100664.03
2019-04-28T05:25:35.725Z,100659.84
2019-04-28T05:26:12.922Z,100657.05
2019-04-28T05:26:51.423Z,100662.31
2019-04-28T05:27:27.480Z,100659.14
2019-04-28T05:28:03.763Z,100655.77
2019-04-28T05:28:50.575Z,100654.18
2019-04-28T05:29:26.462Z,100650.77
2019-04-28T05:30:03.783Z,100649.75
2019-04-28T05:30:39.655Z,100655.33
2019-04-28T05:31:22.956Z,100653.95
2019-04-28T05:31:54.747Z,100648.50
2019-04-28T05:32:41.621Z,100643.84
2019-04-28T05:33:07.558Z,100642.16
2019-04-28T05:33:46.284Z,100637.73
2019-04-28T05:34:24.246Z,100634.66
2019-04-28T05:35:00.697Z,100630.56
2019-04-28T05:35:37.000Z,100631.92
2019-04-28T05:36:13.284Z,100632.61
2019-04-28T05:36:50.529Z,100628.52
2019-04-28T05:37:29.630Z,100630.59
2019-04-28T05:38:05.976Z,100625.36
2019-04-28T05:38:42.831Z,100626.25
2019-04-28T05:39:19.645Z,100622.06
2019-04-28T05:39:55.980Z,100622.16
2019-04-28T05:40:32.278Z,100621.48
2019-04-28T05:41:10.564Z,100620.80
2019-04-28T05:41:47.334Z,100615.55
2019-04-28T05:42:23.656Z,100609.16
2019-04-28T05:43:00.861Z,100611.91
2019-04-28T05:43:37.503Z,100614.14
2019-04-28T05:44:13.818Z,100608.65
2019-04-28T05:44:50.566Z,100607.28
2019-04-28T05:45:26.956Z,100596.89
2019-04-28T05:46:03.325Z,100602.70
2019-04-28T05:46:40.362Z,100597.20
2019-04-28T05:47:16.703Z,100593.45
2019-04-28T05:47:53.069Z,100595.13
2019-04-28T05:48:44.638Z,100586.01
2019-04-28T05:49:39.742Z,100586.89
2019-04-28T05:50:25.012Z,100588.00
2019-04-28T05:51:04.863Z,100581.15
2019-04-28T05:51:41.524Z,100577.93
2019-04-28T05:52:50.126Z,100575.50
2019-04-28T05:53:41.545Z,100574.47
2019-04-28T05:54:36.759Z,100574.91
2019-04-28T05:55:17.653Z,100571.47
2019-04-28T05:56:01.221Z,100565.84
2019-04-28T05:56:42.955Z,100555.42
2019-04-28T05:57:23.427Z,100559.25
2019-04-28T05:58:23.329Z,100558.76
2019-04-28T05:59:12.716Z,100559.23
2019-04-28T06:00:03.547Z,100562.19
2019-04-28T06:00:57.273Z,100554.63
2019-04-28T06:01:41.064Z,100557.44
2019-04-28T06:02:22.110Z,100550.46
2019-04-28T06:03:00.667Z,100547.34
2019-04-28T06:03:37.631Z,100549.37
2019-04-28T06:04:16.236Z,100542.03
2019-04-28T06:04:52.581Z,100536.84
2019-04-28T06:05:32.013Z,100538.56
2019-04-28T06:06:11.809Z,100533.66
2019-04-28T06:06:50.227Z,100538.02
2019-04-28T06:07:52.233Z,100536.29
2019-04-28T06:08:40.633Z,100534.70
2019-04-28T06:09:35.983Z,100531.67
2019-04-28T06:10:12.487Z,100530.73
2019-04-28T06:10:49.848Z,100526.41
2019-04-28T06:11:36.326Z,100523.43
2019-04-28T06:12:15.041Z,100523.29
2019-04-28T06:12:51.370Z,100523.38
2019-04-28T06:13:27.698Z,100524.95
2019-04-28T06:14:04.281Z,100518.19
2019-04-28T06:14:43.399Z,100520.46
2019-04-28T06:15:20.437Z,100517.80
2019-04-28T06:15:56.776Z,100518.20
2019-04-28T06:16:36.611Z,100518.13
2019-04-28T06:17:12.993Z,100515.18
2019-04-28T06:17:50.535Z,100512.97
2019-04-28T06:18:30.775Z,100509.16
2019-04-28T06:19:10.279Z,100509.59
2019-04-28T06:19:46.789Z,100508.28
2019-04-28T06:20:30.392Z,100505.77
2019-04-28T06:21:08.364Z,100502.77
2019-04-28T06:21:44.874Z,100508.02
2019-04-28T06:22:21.242Z,100503.39
2019-04-28T06:22:58.403Z,100502.64
2019-04-28T06:23:34.673Z,100498.75
2019-04-28T06:24:10.912Z,100493.81
2019-04-28T06:24:47.274Z,100494.13
2019-04-28T06:25:26.340Z,100495.08
2019-04-28T06:26:02.688Z,100491.45
2019-04-28T06:26:39.204Z,100492.66
2019-04-28T06:27:15.587Z,100487.25
2019-04-28T06:27:51.914Z,100484.84
2019-04-28T06:28:28.273Z,100483.66
2019-04-28T06:29:05.191Z,100484.24
2019-04-28T06:29:41.493Z,100481.52
2019-04-28T06:30:18.077Z,100487.21
2019-04-28T06:30:54.423Z,100483.58
2019-04-28T06:31:30.752Z,100484.96
2019-04-28T06:32:07.286Z,100483.36
2019-04-28T06:32:43.672Z,100485.83
2019-04-28T06:33:20.068Z,100485.81
2019-04-28T06:34:01.118Z,100481.14
2019-04-28T06:34:37.496Z,100480.56
2019-04-28T06:35:13.849Z,100483.47
2019-04-28T06:35:51.495Z,100478.88
2019-04-28T06:36:28.008Z,100481.21
2019-04-28T06:37:04.555Z,100468.17
2019-04-28T06:37:42.058Z,100477.37
2019-04-28T06:38:18.395Z,100474.63
2019-04-28T06:38:55.969Z,100473.78
2019-04-28T06:39:33.278Z,100469.56
2019-04-28T06:40:09.615Z,100474.33
2019-04-28T06:40:46.151Z,100474.48
2019-04-28T06:41:23.589Z,100467.72
2019-04-28T06:41:59.899Z,100468.91
2019-04-28T06:42:36.334Z,100472.88
2019-04-28T06:43:12.828Z,100469.06
2019-04-28T06:43:52.793Z,100466.26
2019-04-28T06:44:30.496Z,100466.22
2019-04-28T06:45:08.287Z,100457.53
2019-04-28T06:45:44.526Z,100465.45
2019-04-28T06:46:23.759Z,100458.90
2019-04-28T06:47:00.082Z,100454.14
2019-04-28T06:47:36.513Z,100457.74
2019-04-28T06:48:13.040Z,100444.98
2019-04-28T06:48:50.646Z,100443.35
2019-04-28T06:49:27.009Z,100444.42
2019-04-28T06:50:04.926Z,100439.59
2019-04-28T06:50:41.296Z,100444.44
2019-04-28T06:51:17.629Z,100439.82
2019-04-28T06:51:53.840Z,100436.02
2019-04-28T06:52:30.034Z,100441.92
2019-04-28T06:53:06.295Z,100439.61
2019-04-28T06:53:42.540Z,100441.20
2019-04-28T06:54:19.116Z,100439.67
2019-04-28T06:54:55.654Z,100438.16
2019-04-28T06:55:42.653Z,100443.48
2019-04-28T06:56:18.953Z,100439.80
2019-04-28T06:56:55.376Z,100429.57
2019-04-28T06:57:34.217Z,100430.66
2019-04-28T06:58:10.404Z,100434.07
2019-04-28T06:58:58.370Z,100433.92
2019-04-28T06:59:26.206Z,100428.23
2019-04-28T07:00:02.740Z,100426.64
2019-04-28T07:00:39.406Z,100420.95
2019-04-28T07:01:15.823Z,100418.42
2019-04-28T07:01:52.659Z,100417.48
2019-04-28T07:02:29.050Z,100414.53
2019-04-28T07:03:17.074Z,100410.48
2019-04-28T07:03:47.349Z,100410.11
2019-04-28T07:04:23.615Z,100407.65
2019-04-28T07:05:02.329Z,100413.34
2019-04-28T07:05:37.929Z,100405.97
2019-04-28T07:06:14.473Z,100401.59
2019-04-28T07:06:50.803Z,100401.27
2019-04-28T07:07:28.916Z,100395.22
2019-04-28T07:08:05.175Z,100395.73
2019-04-28T07:08:41.718Z,100390.25
2019-04-28T07:09:18.003Z,100391.47
2019-04-28T07:09:54.434Z,100384.35
2019-04-28T07:10:30.602Z,100381.19
2019-04-28T07:11:07.057Z,100381.67
2019-04-28T07:11:43.389Z,100373.97
2019-04-28T07:12:19.768Z,100379.55
2019-04-28T07:12:56.137Z,100374.65
2019-04-28T07:13:32.422Z,100379.43
2019-04-28T07:14:10.282Z,100383.88
2019-04-28T07:14:46.513Z,100381.28
2019-04-28T07:15:22.826Z,100382.02
2019-04-28T07:16:00.372Z,100373.44
2019-04-28T07:16:36.814Z,100379.13
2019-04-28T07:17:13.184Z,100377.55
2019-04-28T07:17:51.506Z,100378.76
2019-04-28T07:18:33.327Z,100373.73
2019-04-28T07:19:11.085Z,100365.22
2019-04-28T07:19:51.380Z,100361.38
2019-04-28T07:20:48.002Z,100360.67
2019-04-28T07:21:47.440Z,100362.47
2019-04-28T07:22:28.272Z,100364.78
2019-04-28T07:23:06.116Z,100367.95
2019-04-28T07:23:42.485Z,100354.84
2019-04-28T07:24:19.062Z,100358.95
2019-04-28T07:24:55.929Z,100362.17
2019-04-28T07:25:33.730Z,100362.90
2019-04-28T07:26:10.276Z,100366.58
2019-04-28T07:26:59.741Z,100359.89
2019-04-28T07:27:38.997Z,100357.66
2019-04-28T07:28:18.380Z,100362.62
2019-04-28T07:28:56.094Z,100353.84
2019-04-28T07:29:36.971Z,100359.98
2019-04-28T07:30:14.214Z,100357.15
2019-04-28T07:30:50.750Z,100358.14
2019-04-28T07:31:29.655Z,100355.98
2019-04-28T07:32:15.206Z,100352.66
2019-04-28T07:32:52.214Z,100363.02
2019-04-28T07:33:35.881Z,100358.31